Time;durP1;ratioP1;P1;durP2;ratioP2;P2;SDS_P1;SDS_P2;PMS_P1;PMS_P2;Temp;Humidity;BMP_temperature;BMP_pressure;BME280_temperature;BME280_humidity;BME280_pressure;Samples;Min_cycle;Max_cycle;Signal;HPM_P1;HPM_P2
2023/07/10 00:01:54;;;;;;;6.03;4.40;;;;;;;26.03;39.40;101498.53;4990589;28;20050;-75
2023/07/10 00:04:22;;;;;;;6.18;4.18;;;;;;;26.01;39.60;101493.13;4994088;28;20046;-75
2023/07/10 00:06:51;;;;;;;5.95;4.60;;;;;;;26.03;39.60;101495.72;5007361;28;20054;-76
2023/07/10 00:09:19;;;;;;;5.93;4.43;;;;;;;25.99;39.46;101500.03;4990090;28;20052;-77
2023/07/10 00:11:47;;;;;;;5.75;4.05;;;;;;;25.98;39.41;101501.13;4990706;28;20487;-76
2023/07/10 00:14:18;;;;;;;5.13;3.72;;;;;;;26.00;39.38;101513.00;4989697;28;20069;-76
2023/07/10 00:16:46;;;;;;;8.33;4.37;;;;;;;25.94;39.32;101509.13;4989683;28;20038;-76
2023/07/10 00:19:15;;;;;;;4.95;3.83;;;;;;;25.95;39.59;101498.78;4990325;28;20533;-76
2023/07/10 00:21:43;;;;;;;6.40;4.28;;;;;;;25.95;39.38;101504.38;4989582;28;20125;-76
2023/07/10 00:24:12;;;;;;;5.88;4.03;;;;;;;25.94;39.52;101499.84;4993078;28;20125;-75
2023/07/10 00:26:42;;;;;;;6.38;3.88;;;;;;;25.92;39.15;101504.81;4992621;28;20172;-76
2023/07/10 00:29:16;;;;;;;5.47;4.10;;;;;;;25.94;39.70;101516.69;4991364;28;20414;-76
2023/07/10 00:31:44;;;;;;;4.97;3.42;;;;;;;25.89;39.28;101513.66;4991222;28;20056;-76
2023/07/10 00:34:14;;;;;;;5.47;3.60;;;;;;;25.90;38.92;101518.19;4991441;28;20073;-76
2023/07/10 00:36:43;;;;;;;6.03;3.72;;;;;;;25.86;39.02;101519.72;4990359;28;20121;-77
2023/07/10 00:39:20;;;;;;;5.07;3.50;;;;;;;25.87;38.93;101519.50;4991289;28;20573;-77
2023/07/10 00:41:53;;;;;;;6.18;3.22;;;;;;;25.83;39.07;101523.81;4990938;28;20042;-75
2023/07/10 00:44:26;;;;;;;4.75;3.28;;;;;;;25.83;39.30;101520.16;5007703;28;20038;-76
2023/07/10 00:46:58;;;;;;;5.72;3.50;;;;;;;25.81;38.88;101514.75;5008253;28;20070;-76
2023/07/10 00:49:38;;;;;;;4.95;3.53;;;;;;;25.79;39.13;101508.53;5003417;28;20593;-77
2023/07/10 00:52:13;;;;;;;4.47;2.88;;;;;;;25.78;39.39;101518.03;4990600;28;20097;-76
2023/07/10 00:54:45;;;;;;;5.82;3.13;;;;;;;25.77;39.39;101523.84;4988572;28;20049;-76
2023/07/10 00:57:16;;;;;;;5.05;3.33;;;;;;;25.73;38.83;101523.41;4987493;28;20449;-77
2023/07/10 00:59:45;;;;;;;4.82;3.10;;;;;;;25.71;39.11;101521.94;4986473;28;20051;-76
2023/07/10 01:02:23;;;;;;;4.18;3.00;;;;;;;25.74;38.90;101518.66;5004164;28;20121;-76
2023/07/10 01:04:56;;;;;;;5.35;3.80;;;;;;;25.72;39.27;101518.88;4990932;28;20030;-76
2023/07/10 01:07:27;;;;;;;6.15;3.70;;;;;;;25.69;39.03;101526.88;5053122;23;20056;-82
2023/07/10 01:09:59;;;;;;;6.65;4.03;;;;;;;25.69;39.08;101526.88;5057878;28;20130;-82
2023/07/10 01:12:29;;;;;;;7.22;4.28;;;;;;;25.66;38.91;101521.69;5040398;28;20049;-82
2023/07/10 01:14:57;;;;;;;7.50;4.55;;;;;;;25.64;39.19;101527.50;5039478;28;20303;-82
2023/07/10 01:17:28;;;;;;;5.78;4.15;;;;;;;25.63;39.03;101521.06;5019286;28;20053;-81
2023/07/10 01:20:00;;;;;;;6.18;4.57;;;;;;;25.64;39.25;101519.97;5014761;28;20132;-80
2023/07/10 01:22:30;;;;;;;7.00;4.38;;;;;;;25.62;39.32;101518.50;5037480;28;20065;-81
2023/07/10 01:24:59;;;;;;;5.93;3.92;;;;;;;25.59;39.16;101525.38;5035078;28;20085;-81
2023/07/10 01:27:28;;;;;;;5.75;4.22;;;;;;;25.58;38.77;101523.66;5014200;28;20044;-82
2023/07/10 01:30:04;;;;;;;6.20;4.57;;;;;;;25.62;38.97;101515.69;5017581;28;20045;-82
2023/07/10 01:32:33;;;;;;;6.65;5.10;;;;;;;25.57;38.82;101527.53;5032807;28;20051;-79
2023/07/10 01:35:05;;;;;;;6.85;5.38;;;;;;;25.59;39.10;101522.56;5013941;28;20046;-80
2023/07/10 01:37:35;;;;;;;6.63;5.47;;;;;;;25.58;38.82;101522.78;5021051;28;20039;-80
2023/07/10 01:40:03;;;;;;;8.75;5.10;;;;;;;25.53;38.73;101523.47;5017550;28;20084;-81
2023/07/10 01:42:31;;;;;;;6.75;5.32;;;;;;;25.53;39.02;101523.47;5015432;28;20558;-81
2023/07/10 01:45:00;;;;;;;7.20;5.43;;;;;;;25.52;38.70;101523.66;5015024;28;20042;-80
2023/07/10 01:47:30;;;;;;;7.15;5.88;;;;;;;25.50;38.36;101517.38;5033731;28;20049;-82
2023/07/10 01:49:59;;;;;;;7.88;6.20;;;;;;;25.48;38.72;101516.72;5014315;28;20129;-82
2023/07/10 01:52:27;;;;;;;7.10;5.07;;;;;;;25.46;38.59;101516.09;5013883;28;20045;-80
2023/07/10 01:54:57;;;;;;;7.82;6.03;;;;;;;25.47;38.59;101515.03;5015495;28;20180;-81
2023/07/10 01:57:26;;;;;;;8.07;5.93;;;;;;;25.43;38.54;101510.94;5026929;28;20099;-81
2023/07/10 01:59:55;;;;;;;6.95;5.80;;;;;;;25.41;38.55;101515.88;5024475;28;20417;-82
2023/07/10 02:02:23;;;;;;;7.68;5.97;;;;;;;25.40;38.44;101515.00;5032599;28;20042;-81
2023/07/10 02:04:52;;;;;;;7.03;5.53;;;;;;;25.38;38.76;101513.53;5020356;28;20050;-81
2023/07/10 02:07:20;;;;;;;7.63;6.00;;;;;;;25.37;38.57;101509.00;5027246;28;20046;-82
2023/07/10 02:09:48;;;;;;;7.95;5.65;;;;;;;25.36;38.60;101512.88;5007172;28;20092;-81
2023/07/10 02:12:17;;;;;;;7.68;5.82;;;;;;;25.37;38.68;101529.47;5034818;28;20050;-82
2023/07/10 02:14:46;;;;;;;7.65;5.45;;;;;;;25.33;38.54;101546.91;5021050;28;20046;-82
2023/07/10 02:17:14;;;;;;;7.38;5.70;;;;;;;25.31;38.73;101554.69;5019774;28;20430;-79
2023/07/10 02:19:42;;;;;;;7.72;5.28;;;;;;;25.29;38.33;101562.44;5031426;28;20117;-80
2023/07/10 02:22:10;;;;;;;7.15;5.32;;;;;;;25.26;38.51;101560.94;5042223;28;20054;-81
2023/07/10 02:24:38;;;;;;;6.88;5.40;;;;;;;25.25;38.39;101556.41;5031838;28;20053;-81
2023/07/10 02:27:07;;;;;;;7.88;5.43;;;;;;;25.23;38.41;101570.63;5029105;28;20117;-79
2023/07/10 02:29:36;;;;;;;7.78;5.68;;;;;;;25.23;38.58;101567.81;5015521;28;20113;-81
2023/07/10 02:32:06;;;;;;;6.90;4.90;;;;;;;25.21;38.36;101570.00;5010688;28;20125;-80
2023/07/10 02:34:34;;;;;;;6.15;4.57;;;;;;;25.16;38.50;101566.09;5017683;28;20049;-81
2023/07/10 02:37:02;;;;;;;7.63;5.03;;;;;;;25.16;38.31;101566.09;5027873;28;20038;-81
2023/07/10 02:39:30;;;;;;;7.15;4.93;;;;;;;25.15;38.56;101567.16;5009729;28;20045;-83
2023/07/10 02:41:58;;;;;;;7.15;4.78;;;;;;;25.14;38.17;101565.47;5029052;28;20046;-82
2023/07/10 02:44:26;;;;;;;7.00;5.30;;;;;;;25.12;38.27;101567.59;5016413;28;20065;-82
2023/07/10 02:46:55;;;;;;;6.32;4.70;;;;;;;25.12;38.49;101568.47;5009337;28;20041;-82
2023/07/10 02:49:23;;;;;;;6.28;4.72;;;;;;;25.09;38.50;101570.81;5007552;28;20046;-84
2023/07/10 02:51:51;;;;;;;6.63;4.95;;;;;;;25.07;38.53;101579.44;5013218;28;20120;-82
2023/07/10 02:54:19;;;;;;;7.90;5.22;;;;;;;25.07;38.64;101576.63;5012346;28;20445;-82
2023/07/10 02:56:47;;;;;;;6.53;4.43;;;;;;;25.06;38.33;101574.06;5028814;28;20045;-81
2023/07/10 02:59:15;;;;;;;6.32;4.57;;;;;;;25.04;38.18;101582.69;5011804;28;20046;-82
2023/07/10 03:01:43;;;;;;;7.60;5.00;;;;;;;25.01;38.68;101585.03;5011346;28;20065;-81
2023/07/10 03:04:12;;;;;;;6.22;4.85;;;;;;;25.03;38.48;101594.97;5008842;28;20038;-81
2023/07/10 03:06:40;;;;;;;6.10;4.97;;;;;;;25.00;38.40;101595.38;5001998;28;20066;-84
2023/07/10 03:09:08;;;;;;;8.13;5.32;;;;;;;25.00;38.74;101603.78;5007360;28;20536;-82
2023/07/10 03:11:36;;;;;;;7.53;5.20;;;;;;;24.99;38.29;101593.63;5006397;28;20050;-82
2023/07/10 03:14:04;;;;;;;7.40;5.93;;;;;;;24.99;38.64;101589.97;5010342;28;20050;-83
2023/07/10 03:16:33;;;;;;;7.07;5.53;;;;;;;24.95;39.02;101583.94;5008007;28;20062;-82
2023/07/10 03:19:01;;;;;;;7.72;5.88;;;;;;;24.97;38.61;101578.16;5013812;28;20046;-83
2023/07/10 03:21:31;;;;;;;9.38;6.22;;;;;;;24.97;38.83;101580.94;5024455;28;20042;-84
2023/07/10 03:24:01;;;;;;;7.57;6.22;;;;;;;24.94;38.74;101593.44;5015442;28;20065;-83
2023/07/10 03:26:29;;;;;;;8.02;6.05;;;;;;;24.94;38.92;101589.75;5005376;28;20042;-83
2023/07/10 03:29:06;;;;;;;8.75;6.70;;;;;;;24.95;38.62;101581.16;5015555;28;20046;-83
2023/07/10 03:31:34;;;;;;;7.75;6.38;;;;;;;24.90;38.78;101569.66;5024555;28;20046;-83
2023/07/10 03:34:03;;;;;;;8.35;7.22;;;;;;;24.89;38.98;101573.56;5015463;28;20038;-81
2023/07/10 03:36:33;;;;;;;9.52;6.68;;;;;;;24.89;38.81;101574.44;5015422;28;20073;-81
2023/07/10 03:39:01;;;;;;;8.70;6.18;;;;;;;24.83;38.95;101577.19;5020498;28;20060;-81
2023/07/10 03:41:29;;;;;;;9.18;6.97;;;;;;;24.83;38.92;101586.47;5023492;28;20056;-81
2023/07/10 03:43:57;;;;;;;10.18;8.35;;;;;;;24.81;38.99;101583.00;5009764;28;20069;-82
2023/07/10 03:46:25;;;;;;;8.85;6.32;;;;;;;24.81;38.69;101585.81;5033266;28;20125;-82
2023/07/10 03:48:53;;;;;;;9.73;7.53;;;;;;;24.80;38.67;101577.63;5016826;28;20077;-81
2023/07/10 03:51:21;;;;;;;9.55;7.32;;;;;;;24.78;39.06;101575.03;5017451;28;20587;-82
2023/07/10 03:53:50;;;;;;;9.93;7.68;;;;;;;24.80;39.14;101580.44;5018021;28;20046;-83
2023/07/10 03:56:18;;;;;;;8.43;6.78;;;;;;;24.76;38.82;101587.53;5008244;28;20078;-83
2023/07/10 03:58:46;;;;;;;9.25;7.07;;;;;;;24.75;39.06;101578.25;5014335;28;20050;-81
2023/07/10 04:01:15;;;;;;;8.93;7.10;;;;;;;24.76;38.65;101582.78;5028953;28;20065;-81
2023/07/10 04:03:44;;;;;;;9.43;7.68;;;;;;;24.75;38.86;101588.59;5045979;28;20050;-81
2023/07/10 04:06:15;;;;;;;9.70;7.65;;;;;;;24.76;39.00;101582.78;5027665;28;20065;-80
2023/07/10 04:08:45;;;;;;;9.95;7.18;;;;;;;24.73;38.96;101593.56;5019497;28;20042;-81
2023/07/10 04:11:16;;;;;;;10.25;6.95;;;;;;;24.74;38.66;101603.66;5019965;28;20056;-80
2023/07/10 04:13:44;;;;;;;8.73;6.75;;;;;;;24.68;38.97;101598.91;5016945;28;20554;-81
2023/07/10 04:16:17;;;;;;;11.25;7.82;;;;;;;24.72;38.91;101605.81;5032860;28;20042;-81
2023/07/10 04:18:48;;;;;;;8.88;7.15;;;;;;;24.68;38.84;101610.97;5014991;28;20053;-82
2023/07/10 04:21:18;;;;;;;10.05;7.68;;;;;;;24.69;38.90;101617.44;5016770;28;20049;-80
2023/07/10 04:23:46;;;;;;;8.65;6.95;;;;;;;24.65;38.71;101616.97;5028966;28;20044;-81
2023/07/10 04:26:18;;;;;;;8.75;6.72;;;;;;;24.68;38.63;101621.28;5032094;28;20065;-80
2023/07/10 04:28:47;;;;;;;8.40;6.90;;;;;;;24.62;38.71;101620.22;5006534;28;20137;-80
2023/07/10 04:31:15;;;;;;;9.95;6.90;;;;;;;24.62;38.47;101623.00;5031745;28;20069;-81
2023/07/10 04:33:43;;;;;;;9.30;7.55;;;;;;;24.62;38.86;101627.75;5021736;28;20042;-81
2023/07/10 04:36:12;;;;;;;10.13;6.90;;;;;;;24.61;38.50;101631.59;5020483;28;20062;-80
2023/07/10 04:38:39;;;;;;;10.48;7.53;;;;;;;24.61;38.65;101634.41;5028785;28;20081;-81
2023/07/10 04:41:08;;;;;;;9.60;7.38;;;;;;;24.59;38.65;101628.16;5016922;28;20113;-81
2023/07/10 04:43:38;;;;;;;9.38;6.85;;;;;;;24.59;38.51;101630.94;5036752;28;20060;-82
2023/07/10 04:46:08;;;;;;;10.85;6.95;;;;;;;24.58;38.62;101629.22;5020771;28;20077;-82
2023/07/10 04:48:36;;;;;;;9.48;7.55;;;;;;;24.54;38.79;101630.72;5018695;28;20046;-82
2023/07/10 04:51:07;;;;;;;9.95;7.28;;;;;;;24.51;39.10;101632.84;5015615;28;20049;-80
2023/07/10 04:53:35;;;;;;;9.23;6.93;;;;;;;24.49;38.94;101631.31;5029431;28;20100;-81
2023/07/10 04:56:05;;;;;;;10.70;7.85;;;;;;;24.50;38.80;101633.06;5023344;28;20489;-80
2023/07/10 04:58:48;;;;;;;9.43;6.55;;;;;;;24.48;38.76;101638.84;5017405;28;20054;-81
2023/07/10 05:01:17;;;;;;;9.85;7.05;;;;;;;24.43;38.91;101643.34;5021811;28;20050;-81
2023/07/10 05:03:46;;;;;;;10.10;7.38;;;;;;;24.45;38.96;101649.63;5003867;28;20128;-80
2023/07/10 05:06:13;;;;;;;10.80;7.82;;;;;;;24.43;39.14;101646.16;5010294;28;20077;-79
2023/07/10 05:08:41;;;;;;;10.50;6.75;;;;;;;24.42;38.96;101650.03;5008517;28;20141;-80
2023/07/10 05:11:09;;;;;;;9.27;7.05;;;;;;;24.40;38.69;101654.97;5011640;28;20042;-80
2023/07/10 05:13:37;;;;;;;9.85;7.07;;;;;;;24.38;38.99;101663.56;5020711;28;20042;-81
2023/07/10 05:16:07;;;;;;;7.75;6.75;;;;;;;24.38;38.86;101657.97;5004969;28;20149;-80
2023/07/10 05:18:35;;;;;;;8.93;6.65;;;;;;;24.37;38.70;101664.63;5021713;28;20057;-81
2023/07/10 05:21:04;;;;;;;9.40;6.30;;;;;;;24.35;38.76;101658.38;5020064;28;20136;-81
2023/07/10 05:23:32;;;;;;;9.15;6.50;;;;;;;24.37;38.70;101666.56;5005770;28;20085;-81
2023/07/10 05:26:04;;;;;;;7.78;5.78;;;;;;;24.38;38.76;101674.78;5003499;28;20060;-81
2023/07/10 05:28:33;;;;;;;9.00;6.03;;;;;;;24.33;38.44;101666.06;5011091;28;20050;-81
2023/07/10 05:31:03;;;;;;;8.10;5.90;;;;;;;24.33;38.64;101671.66;5018802;28;20164;-79
2023/07/10 05:33:32;;;;;;;7.32;5.93;;;;;;;24.34;38.84;101672.53;5021294;28;20054;-82
2023/07/10 05:36:03;;;;;;;7.90;6.30;;;;;;;24.33;38.59;101676.41;5019828;28;20169;-81
2023/07/10 05:38:33;;;;;;;7.88;5.63;;;;;;;24.31;38.74;101670.16;5013086;28;20057;-81
2023/07/10 05:41:02;;;;;;;7.47;5.32;;;;;;;24.28;39.03;101673.38;5024896;28;20402;-80
2023/07/10 05:43:30;;;;;;;8.10;5.53;;;;;;;24.27;38.54;101678.09;5031955;28;20042;-80
2023/07/10 05:45:58;;;;;;;8.15;5.43;;;;;;;24.25;38.35;101680.22;5028988;28;20054;-79
2023/07/10 05:48:27;;;;;;;8.38;5.40;;;;;;;24.26;38.86;101692.28;5027233;28;20071;-79
2023/07/10 05:50:57;;;;;;;7.88;5.70;;;;;;;24.26;38.66;101686.69;5028287;28;20046;-79
2023/07/10 05:53:26;;;;;;;10.05;5.30;;;;;;;24.22;38.50;101691.84;5021671;28;20105;-79
2023/07/10 05:55:55;;;;;;;8.90;5.35;;;;;;;24.23;38.52;101699.16;5028733;28;20490;-80
2023/07/10 05:58:25;;;;;;;7.25;5.00;;;;;;;24.24;38.77;101691.66;5021314;28;20039;-78
2023/07/10 06:00:55;;;;;;;7.82;5.07;;;;;;;24.23;38.74;101687.13;5026797;28;20046;-80
2023/07/10 06:03:24;;;;;;;6.68;4.82;;;;;;;24.21;38.64;101698.50;5024141;28;20249;-79
2023/07/10 06:05:58;;;;;;;8.73;5.45;;;;;;;24.24;38.81;101691.66;5029996;28;20038;-79
2023/07/10 06:08:27;;;;;;;7.55;5.00;;;;;;;24.21;38.71;101687.31;5025215;28;20038;-79
2023/07/10 06:10:56;;;;;;;7.30;5.32;;;;;;;24.20;38.72;101685.59;5012142;28;20100;-79
2023/07/10 06:13:24;;;;;;;7.95;5.22;;;;;;;24.22;38.63;101690.97;5014569;28;20104;-79
2023/07/10 06:15:55;;;;;;;7.95;5.22;;;;;;;24.22;38.73;101686.25;5013894;28;20049;-82
2023/07/10 06:18:24;;;;;;;7.50;5.10;;;;;;;24.23;38.83;101685.19;5011008;28;20521;-80
2023/07/10 06:20:53;;;;;;;7.00;5.35;;;;;;;24.25;38.82;101693.34;5006790;28;20042;-82
2023/07/10 06:23:23;;;;;;;9.30;5.43;;;;;;;24.26;38.57;101697.88;5010918;28;20065;-81
2023/07/10 06:25:52;;;;;;;9.30;5.60;;;;;;;24.24;38.69;101691.66;5022771;28;20049;-83
2023/07/10 06:28:24;;;;;;;8.32;5.78;;;;;;;24.27;38.54;101697.69;5005865;28;20674;-83
2023/07/10 06:30:57;;;;;;;8.20;5.20;;;;;;;24.26;38.61;101695.94;5022676;28;20057;-84
2023/07/10 06:33:27;;;;;;;6.72;5.32;;;;;;;24.27;38.74;101697.69;5020292;28;20061;-83
2023/07/10 06:35:57;;;;;;;7.97;5.28;;;;;;;24.27;38.97;101694.88;5013299;28;20045;-82
2023/07/10 06:38:27;;;;;;;7.03;5.15;;;;;;;24.31;38.96;101709.34;5011625;28;20046;-82
2023/07/10 06:40:55;;;;;;;7.57;5.13;;;;;;;24.30;38.96;101716.00;5012061;28;20053;-80
2023/07/10 06:43:24;;;;;;;7.28;5.38;;;;;;;24.32;38.90;101716.66;5011738;28;20082;-82
2023/07/10 06:45:55;;;;;;;7.72;5.10;;;;;;;24.31;38.73;101721.38;5020884;28;20121;-81
2023/07/10 06:48:23;;;;;;;7.65;5.30;;;;;;;24.30;38.76;101725.25;5008291;28;20130;-81
2023/07/10 06:50:52;;;;;;;6.35;4.68;;;;;;;24.32;38.73;101728.69;5002969;28;20121;-82
2023/07/10 06:53:21;;;;;;;7.68;5.32;;;;;;;24.33;38.71;101735.16;5013142;28;20054;-81
2023/07/10 06:55:59;;;;;;;6.63;5.20;;;;;;;24.35;38.81;101747.91;5010430;28;20045;-79
2023/07/10 06:58:28;;;;;;;7.22;5.05;;;;;;;24.32;38.75;101742.69;5022114;28;20049;-80
2023/07/10 07:00:57;;;;;;;6.10;4.93;;;;;;;24.34;38.78;101737.75;5022432;28;20050;-80
2023/07/10 07:03:25;;;;;;;7.32;4.80;;;;;;;24.35;38.35;101736.72;5025437;28;20049;-81
2023/07/10 07:05:54;;;;;;;8.20;5.28;;;;;;;24.37;38.25;101737.38;5009329;28;20045;-82
2023/07/10 07:08:30;;;;;;;7.43;4.95;;;;;;;24.37;38.31;101734.59;5011863;28;20049;-83
2023/07/10 07:11:01;;;;;;;6.95;4.72;;;;;;;24.42;38.20;101737.63;5023103;28;20448;-81
2023/07/10 07:13:29;;;;;;;6.47;4.60;;;;;;;24.41;38.06;101741.47;5018909;28;20046;-80
2023/07/10 07:15:57;;;;;;;6.30;4.40;;;;;;;24.44;38.26;101743.03;5011355;28;20453;-82
2023/07/10 07:18:26;;;;;;;6.00;4.10;;;;;;;24.46;38.26;101736.16;5027106;28;20483;-83
2023/07/10 07:20:57;;;;;;;6.75;3.63;;;;;;;24.50;38.01;101734.66;5025381;28;20104;-82
2023/07/10 07:23:26;;;;;;;4.82;3.25;;;;;;;24.59;38.09;101735.38;5021821;28;20050;-83
2023/07/10 07:25:55;;;;;;;4.82;2.88;;;;;;;24.70;37.92;101747.91;5021460;28;20054;-82
2023/07/10 07:28:25;;;;;;;5.15;2.92;;;;;;;24.80;37.79;101745.63;5028184;28;20109;-81
2023/07/10 07:31:02;;;;;;;4.60;3.22;;;;;;;24.88;37.35;101746.31;5035787;28;20049;-81
2023/07/10 07:33:31;;;;;;;5.80;2.70;;;;;;;25.00;36.91;101751.34;5037549;28;20045;-80
2023/07/10 07:36:01;;;;;;;4.72;2.78;;;;;;;25.13;36.99;101745.81;5032587;28;20072;-82
2023/07/10 07:38:42;;;;;;;4.65;2.78;;;;;;;25.27;36.25;101745.63;5016339;28;20497;-82
2023/07/10 07:41:26;;;;;;;4.97;2.67;;;;;;;25.38;36.10;101744.19;5011525;28;20042;-84
2023/07/10 07:44:49;;;;;;;4.85;2.92;;;;;;;25.46;36.12;101738.38;5018221;28;20046;-84
2023/07/10 07:47:31;;;;;;;3.90;2.38;;;;;;;25.65;36.10;101750.72;5015467;23;20042;-76
2023/07/10 07:50:01;;;;;;;4.05;2.55;;;;;;;25.75;36.34;101751.16;4989109;28;20077;-73
2023/07/10 07:52:31;;;;;;;3.80;2.22;;;;;;;25.90;35.85;101748.16;4991789;28;20053;-75
2023/07/10 07:54:59;;;;;;;4.65;2.33;;;;;;;25.99;36.00;101755.28;4995270;28;20049;-75
2023/07/10 07:57:27;;;;;;;4.00;2.10;;;;;;;26.10;35.23;101749.06;4989922;28;20038;-75
2023/07/10 07:59:55;;;;;;;3.72;2.03;;;;;;;26.21;34.79;101744.75;4992288;28;20055;-75
2023/07/10 08:02:23;;;;;;;3.63;1.80;;;;;;;26.30;34.68;101747.09;5009467;28;20062;-75
2023/07/10 08:04:53;;;;;;;4.53;2.17;;;;;;;26.43;34.93;101745.38;4992502;28;20050;-74
2023/07/10 08:07:21;;;;;;;2.90;1.80;;;;;;;26.51;34.68;101751.63;4991566;28;20048;-74
2023/07/10 08:09:49;;;;;;;3.70;1.70;;;;;;;26.60;34.16;101744.69;4989203;28;20050;-74
2023/07/10 08:12:17;;;;;;;4.60;2.20;;;;;;;26.70;33.91;101739.53;4980219;28;20379;-74
2023/07/10 08:14:45;;;;;;;4.28;2.20;;;;;;;26.79;33.92;101736.47;4976638;28;20051;-74
2023/07/10 08:17:13;;;;;;;4.22;2.15;;;;;;;26.88;33.85;101750.03;4989641;28;20050;-74
2023/07/10 08:19:41;;;;;;;3.08;1.90;;;;;;;26.96;33.21;101746.97;4993335;28;20101;-74
2023/07/10 08:22:10;;;;;;;4.07;1.90;;;;;;;27.06;32.94;101747.38;4993543;28;20125;-74
2023/07/10 08:24:38;;;;;;;3.58;1.83;;;;;;;27.10;33.01;101750.63;4994390;28;20081;-74
2023/07/10 08:27:07;;;;;;;3.85;1.73;;;;;;;27.19;32.87;101749.31;4986109;28;20042;-74
2023/07/10 08:29:35;;;;;;;3.72;1.58;;;;;;;27.26;32.84;101749.28;4991431;28;20047;-74
2023/07/10 08:32:03;;;;;;;3.42;1.77;;;;;;;27.33;32.63;101748.16;4993345;28;20116;-74
2023/07/10 08:34:32;;;;;;;3.65;1.60;;;;;;;27.41;32.34;101749.84;4993505;28;20046;-74
2023/07/10 08:37:00;;;;;;;3.83;1.70;;;;;;;27.48;32.03;101745.03;4992588;28;20038;-74
2023/07/10 08:39:29;;;;;;;2.40;1.55;;;;;;;27.57;31.52;101740.88;4992392;28;20034;-74
2023/07/10 08:42:01;;;;;;;2.38;1.50;;;;;;;27.64;31.58;101744.50;4992679;28;20046;-75
2023/07/10 08:44:31;;;;;;;;;;;;;;;27.36;32.58;101744.03;4993114;28;20031;-74
2023/07/10 08:47:01;;;;;;;2.65;1.30;;;;;;;27.73;32.10;101745.13;4987980;28;20016;-74
2023/07/10 08:49:35;;;;;;;3.63;1.42;;;;;;;27.85;30.84;101747.00;4992523;28;20405;-74
2023/07/10 08:52:08;;;;;;;2.17;1.20;;;;;;;27.92;30.11;101740.44;4978553;28;20051;-74
2023/07/10 08:54:37;;;;;;;2.40;1.30;;;;;;;27.97;30.25;101743.44;4996383;28;20461;-74
2023/07/10 08:57:17;;;;;;;2.08;1.23;;;;;;;28.03;29.64;101742.50;4981642;28;20200;-74
2023/07/10 08:59:51;;;;;;;2.63;1.20;;;;;;;28.08;29.33;101737.06;4992065;28;20038;-73
2023/07/10 09:02:25;;;;;;;2.70;1.27;;;;;;;28.13;29.54;101742.84;4982103;28;20137;-74
2023/07/10 09:04:54;;;;;;;3.25;1.30;;;;;;;28.16;29.07;101737.66;4998879;28;20572;-75
2023/07/10 09:07:23;;;;;;;2.67;1.25;;;;;;;28.22;29.31;101731.13;4990734;28;20180;-75
2023/07/10 09:09:56;;;;;;;2.60;1.27;;;;;;;28.30;28.83;101729.97;4983195;28;20050;-75
2023/07/10 09:12:28;;;;;;;4.45;1.20;;;;;;;28.35;28.42;101738.59;4999713;28;20065;-74
2023/07/10 09:14:57;;;;;;;;;;;;;;;28.07;30.00;101739.03;4977967;28;20453;-74
2023/07/10 09:17:34;;;;;;;2.17;1.10;;;;;;;28.45;28.17;101743.66;4989174;28;20313;-74
2023/07/10 09:20:06;;;;;;;1.85;1.00;;;;;;;28.53;28.85;101743.38;5000097;28;20432;-74
2023/07/10 09:22:36;;;;;;;3.58;1.20;;;;;;;28.59;28.48;101743.31;5000671;28;20053;-74
2023/07/10 09:25:12;;;;;;;2.80;1.08;;;;;;;28.66;27.83;101748.88;4982676;28;20093;-74
2023/07/10 09:27:42;;;;;;;2.50;1.10;;;;;;;28.71;27.66;101742.53;5005077;28;20051;-74
2023/07/10 09:30:23;;;;;;;3.40;1.45;;;;;;;28.78;27.22;101744.19;4973051;28;20043;-74
2023/07/10 09:32:53;;;;;;;2.00;1.00;;;;;;;28.79;28.34;101748.75;5003676;28;20047;-73
2023/07/10 09:35:21;;;;;;;2.17;1.30;;;;;;;28.87;27.21;101741.94;4991990;28;20050;-74
2023/07/10 09:37:51;;;;;;;2.25;1.08;;;;;;;28.92;27.63;101737.34;4992479;28;20047;-73
2023/07/10 09:40:33;;;;;;;1.98;1.15;;;;;;;28.99;27.27;101743.75;4989832;28;20074;-74
2023/07/10 09:43:03;;;;;;;2.53;1.50;;;;;;;29.03;26.86;101737.63;4991729;28;20097;-74
2023/07/10 09:45:34;;;;;;;2.85;1.30;;;;;;;29.09;26.75;101731.06;4989193;28;20046;-75
2023/07/10 09:48:02;;;;;;;2.55;1.30;;;;;;;29.09;27.32;101723.47;4987196;28;20046;-75
2023/07/10 09:50:32;;;;;;;2.58;1.15;;;;;;;29.18;26.94;101719.19;4991553;28;20342;-75
2023/07/10 09:53:02;;;;;;;2.90;1.35;;;;;;;29.21;26.81;101721.56;4987504;28;20386;-75
2023/07/10 09:55:31;;;;;;;2.45;1.30;;;;;;;29.28;26.55;101727.13;4992159;28;20046;-75
2023/07/10 09:58:01;;;;;;;2.03;1.00;;;;;;;29.33;26.02;101725.34;4986699;28;20410;-75
2023/07/10 10:00:30;;;;;;;2.33;1.13;;;;;;;29.38;26.06;101730.25;4990675;28;20057;-75
2023/07/10 10:03:10;;;;;;;2.25;1.20;;;;;;;29.45;25.52;101731.00;4984145;28;20104;-75
2023/07/10 10:05:42;;;;;;;2.28;1.10;;;;;;;29.51;25.08;101723.56;5007121;28;20455;-74
2023/07/10 10:08:19;;;;;;;2.13;1.00;;;;;;;29.55;25.10;101730.44;4989472;28;20050;-74
2023/07/10 10:11:01;;;;;;;2.55;1.17;;;;;;;29.61;25.56;101730.31;4991851;28;20046;-74
2023/07/10 10:13:31;;;;;;;2.58;1.10;;;;;;;29.64;25.41;101721.38;4990994;28;20278;-74
2023/07/10 10:16:05;;;;;;;3.33;1.30;;;;;;;29.72;25.53;101726.69;4991736;28;20050;-74
2023/07/10 10:18:42;;;;;;;3.05;1.20;;;;;;;29.80;24.83;101721.81;4990072;28;20108;-75
2023/07/10 10:21:13;;;;;;;1.92;1.13;;;;;;;29.84;24.66;101720.25;4991762;28;20035;-75
2023/07/10 10:23:45;;;;;;;2.50;1.20;;;;;;;29.88;24.83;101724.28;4991401;28;20042;-74
2023/07/10 10:26:27;;;;;;;3.40;1.58;;;;;;;29.94;24.48;101732.66;4990615;28;20042;-75
2023/07/10 10:29:07;;;;;;;2.08;1.27;;;;;;;30.00;23.89;101719.53;4991068;28;20129;-75
2023/07/10 10:31:40;;;;;;;3.83;1.40;;;;;;;30.03;24.34;101725.53;4990060;28;20054;-75
2023/07/10 10:34:14;;;;;;;1.90;1.10;;;;;;;30.10;23.75;101731.06;4991735;28;20050;-74
2023/07/10 10:36:51;;;;;;;2.15;1.30;;;;;;;30.13;23.72;101722.13;4990120;28;20181;-75
2023/07/10 10:39:30;;;;;;;2.08;1.23;;;;;;;30.16;23.99;101724.47;4990812;28;20101;-74
2023/07/10 10:42:04;;;;;;;2.15;1.30;;;;;;;30.19;23.26;101726.78;4989985;28;20054;-75
2023/07/10 10:44:49;;;;;;;3.38;1.45;;;;;;;30.22;23.51;101717.84;4985717;28;20114;-74
2023/07/10 10:47:34;;;;;;;2.20;1.20;;;;;;;30.24;23.40;101721.31;4996144;28;20050;-75
2023/07/10 10:50:19;;;;;;;3.03;1.48;;;;;;;30.27;23.07;101725.59;4994289;28;20046;-75
2023/07/10 10:53:00;;;;;;;2.25;1.13;;;;;;;30.28;23.13;101725.34;4987938;28;20050;-75
2023/07/10 10:55:37;;;;;;;2.67;1.40;;;;;;;30.29;23.19;101723.38;4975571;28;20047;-75
2023/07/10 10:58:31;;;;;;;2.17;1.10;;;;;;;30.31;23.12;101716.41;4982756;28;20077;-74
2023/07/10 11:01:11;;;;;;;2.05;1.10;;;;;;;30.33;22.80;101717.00;4991594;28;20418;-73
2023/07/10 11:03:45;;;;;;;2.08;1.10;;;;;;;30.33;23.36;101719.81;4986824;28;20047;-74
2023/07/10 11:06:36;;;;;;;2.60;1.20;;;;;;;30.31;23.49;101715.53;4992815;28;20050;-73
2023/07/10 11:09:17;;;;;;;2.50;1.23;;;;;;;30.35;23.39;101708.28;4981425;28;20062;-73
2023/07/10 11:11:45;;;;;;;1.80;1.17;;;;;;;30.36;23.38;101708.03;4990741;28;20038;-73
2023/07/10 11:14:15;;;;;;;3.47;1.30;;;;;;;30.42;23.59;101709.00;4990828;28;20137;-74
2023/07/10 11:16:43;;;;;;;2.42;1.40;;;;;;;30.42;23.52;101703.38;4986140;28;20042;-72
2023/07/10 11:19:16;;;;;;;2.75;1.30;;;;;;;30.48;23.16;101705.22;4986338;28;20100;-72
2023/07/10 11:21:44;;;;;;;2.35;1.20;;;;;;;30.48;23.36;101702.41;4985797;28;20085;-72
2023/07/10 11:24:31;;;;;;;1.80;0.93;;;;;;;30.53;22.68;101702.50;4984585;28;20069;-74
2023/07/10 11:27:09;;;;;;;2.88;1.25;;;;;;;30.56;23.01;101699.19;4993011;28;20793;-72
2023/07/10 11:29:42;;;;;;;2.42;1.17;;;;;;;30.63;22.70;101705.56;4978425;28;20047;-73
2023/07/10 11:32:16;;;;;;;2.53;1.30;;;;;;;30.68;22.36;101711.31;4992704;28;20129;-72
2023/07/10 11:35:14;;;;;;;1.90;1.00;;;;;;;30.70;22.47;101705.44;4987395;28;20073;-72
2023/07/10 11:38:16;;;;;;;3.30;1.00;;;;;;;30.74;22.26;101713.22;4984577;28;20052;-72
2023/07/10 11:40:50;;;;;;;2.38;1.10;;;;;;;30.80;22.60;101714.16;4984432;28;20047;-72
2023/07/10 11:43:57;;;;;;;3.03;1.17;;;;;;;30.83;22.13;101710.81;4988636;28;20098;-73